This is the latest recevied weather packets stored in our database for station/object KC9DRE. If no packets are shown the sender has not sent any weather packets the latest 10 day(s).
| Time | Temp. | Humidity | Pressure | Rain* | Wind** | Luminosity | Snow |
|---|---|---|---|---|---|---|---|
| 1787502651 | 27.78° C | 44% | 1018.2 hPa | 0 mm | - | 852 W/m² | - |
| 1787502350 | 27.78° C | 56% | 1018.3 hPa | 0 mm | - | 893 W/m² | - |
| 1787502045 | 27.78° C | 57% | 1018.1 hPa | 0 mm | - | 874 W/m² | - |
| 1787501742 | 26.11° C | 60% | 1018.2 hPa | 0 mm | - | 744 W/m² | - |
| 1787501438 | 25.56° C | 62% | 1018.2 hPa | 0 mm | - | 845 W/m² | - |
| 1787501134 | 26.67° C | 63% | 1018.3 hPa | 0 mm | - | 128 W/m² | - |
| 1787500830 | 27.22° C | 57% | 1018.1 hPa | 0 mm | - | 306 W/m² | - |
| 1787500525 | 27.22° C | 56% | 1018.1 hPa | 0 mm | - | 669 W/m² | - |
| 1787500220 | 27.22° C | 59% | 1018.3 hPa | 0 mm | - | 139 W/m² | - |
| 1787499919 | 27.78° C | 63% | 1018 hPa | 0 mm | - | 757 W/m² | - |
| 1787499614 | 27.78° C | 56% | 1018.2 hPa | 0 mm | - | 721 W/m² | - |
| 1787499309 | 27.78° C | 57% | 1018.2 hPa | 0 mm | - | 701 W/m² | - |
| 1787499005 | 27.22° C | 59% | 1018.2 hPa | 0 mm | - | 685 W/m² | - |
| 1787498703 | 26.67° C | 61% | 1018.1 hPa | 0 mm | - | 668 W/m² | - |
| 1787498399 | 26.11° C | 65% | 1018.2 hPa | 0 mm | - | 651 W/m² | - |
| 1787498094 | 26.11° C | 64% | 1018.2 hPa | 0 mm | - | 637 W/m² | - |
| 1787497790 | 26.11° C | 67% | 1018.2 hPa | 0 mm | - | 625 W/m² | - |
| 1787497486 | 25.56° C | 63% | 1018.3 hPa | 0 mm | - | 610 W/m² | - |
| 1787497184 | 25° C | 69% | 1018.1 hPa | 0 mm | - | 594 W/m² | - |
| 1787496879 | 25.56° C | 66% | 1018 hPa | 0 mm | - | 581 W/m² | - |
| 1787496575 | 25.56° C | 64% | 1018.2 hPa | 0 mm | - | 567 W/m² | - |
| 1787496275 | 25.56° C | 67% | 1018.1 hPa | 0 mm | - | 553 W/m² | - |
| 1787495973 | 25.56° C | 66% | 1018.1 hPa | 0 mm | - | 538 W/m² | - |
| 1787495669 | 25.56° C | 63% | 1018.2 hPa | 0 mm | - | 524 W/m² | - |
| 1787495365 | 25.56° C | 67% | 1018.2 hPa | 0 mm | - | 506 W/m² | - |
* Rain latest hour (hover to see other rain measurements)
** Current wind speed in m/s (hover to see current wind gust speed)